Flight Track Log - Related Links

Times and Time Zones

All times are in EDT time to prevent confusion due to time zone crossing. See the KAP927 flight status page for this flight to view local times or setup timezone preferences in your user account.

Time Position Orientation Groundspeed Altitude Reporting Facility
EDT Latitude Longitude Course Direction KTS MPH feet Rate Location/Type
Fri 08:27:25 AM 42.7456 -73.7067 98° East 138 159 1,700  Level Boston Center
Fri 08:28:26 AM 42.7400 -73.6528 98° East 145 167 2,300 595 Climbing Boston Center
Fri 08:29:26 AM 42.7322 -73.5989 101° East 144 166 2,900 595 Climbing Boston Center
Fri 08:30:27 AM 42.7244 -73.5450 101° East 142 163 3,500 567 Climbing Boston Center
Fri 08:31:33 AM 42.7167 -73.4856 100° East 146 168 4,100 496 Climbing Boston Center
Fri 08:32:40 AM 42.7089 -73.4178 99° East 153 176 4,600 386 Climbing Boston Center
Fri 08:33:53 AM 42.6989 -73.3553 102° East 166 191 5,000 366 Climbing Boston Center
Fri 08:34:51 AM 42.6889 -73.2875 101° East 166 191 5,400 403 Climbing Boston Center
Fri 08:35:52 AM 42.6831 -73.2308 98° East 161 185 5,800 397 Climbing Boston Center
Fri 08:36:52 AM 42.6733 -73.1544 100° East 166 191 6,200 347 Climbing Boston Center
Fri 08:37:53 AM 42.6653 -73.0953 100° East 166 191 6,500 397 Climbing Boston Center
Fri 08:38:53 AM 42.6553 -73.0244 101° East 171 197 7,000 361 Climbing Boston Center
Fri 08:40:06 AM 42.6472 -72.9511 98° East 171 197 7,300 231 Climbing Boston Center
Fri 08:41:03 AM 42.6372 -72.8747 100° East 177 204 7,500 102 Climbing Boston Center
Fri 08:42:04 AM 42.6292 -72.8042 99° East 184 212 7,500  Level Boston Center
Fri 08:43:05 AM 42.6167 -72.7336 104° East 189 217 7,500 -50 Level Boston Center
Fri 08:44:05 AM 42.6086 -72.6631 99° East 184 212 7,400 -51 Descending Boston Center
Fri 08:45:03 AM 42.5983 -72.5953 102° East 178 205 7,400  Level Boston Center
Fri 08:46:04 AM 42.5900 -72.5275 99° East 178 205 7,400 50 Level Boston Center
Fri 08:47:04 AM 42.5797 -72.4625 102° East 178 205 7,500 50 Climbing Boston Center
Fri 08:48:05 AM 42.5714 -72.3950 99° East 178 205 7,500  Level Boston Center
Fri 08:49:06 AM 42.5608 -72.3244 101° East 178 205 7,500 -51 Level Boston Center
Fri 08:50:03 AM 42.5503 -72.2542 102° East 184 212 7,400  Descending Boston Center
Fri 08:51:03 AM 42.5439 -72.1864 97° East 184 212 7,500 49 Climbing Boston Center
Fri 08:52:05 AM 42.5333 -72.1189 102° East 184 212 7,500  Level Boston Center
Fri 08:53:05 AM 42.5228 -72.0542 102° East 179 206 7,500  Level Boston Center
Fri 08:54:03 AM 42.5119 -71.9867 102° East 179 206 7,500 -51 Level Boston Center
Fri 08:55:03 AM 42.5033 -71.9192 100° East 179 206 7,400  Descending Boston Center
Fri 08:56:03 AM 42.4947 -71.8544 100° East 179 206 7,500 -197 Climbing Boston Center
Fri 08:57:05 AM 42.4881 -71.7842 97° East 179 206 7,000 -492 Descending Boston Center
Fri 08:58:05 AM 42.4794 -71.7081 99° East 193 222 6,500 -458 Descending Boston Center
Fri 08:59:03 AM 42.4706 -71.6322 99° East 198 228 6,100 -478 Descending Boston Center
Fri 08:59:58 AM 42.4667 -71.5667 95° East 204 235 5,600 -545 Descending KA90
Fri 09:01:04 AM 42.4667 -71.4833 90° East 207 238 5,000 -550 Descending KA90
Fri 09:01:58 AM 42.4833 -71.4167 71° East 200 230 4,500 -316 Descending KA90
Fri 09:02:58 AM 42.4833 -71.3500 90° East 186 214 4,400 -50 Descending KA90
Fri 09:03:58 AM 42.5000 -71.2833 71° East 178 205 4,400 48 Level KA90
Fri 09:05:04 AM 42.5167 -71.2167 71° East 174 200 4,500  Climbing KA90
Fri 09:05:58 AM 42.5333 -71.1500 71° East 172 198 4,400 -316 Descending KA90
Fri 09:06:58 AM 42.5500 -71.0833 71° East 190 219 3,900 -750 Descending KA90
Fri 09:07:58 AM 42.5000 -71.0333 144° Southeast 189 217 2,900 -950 Descending KA90
Fri 09:08:58 AM 42.4500 -71.0167 166° South 186 214 2,000 -900 Descending KA90
Fri 09:09:58 AM 42.4167 -70.9833 144° Southeast 164 189 1,100 -900 Descending KA90
Fri 09:10:58 AM 42.3833 -71.0000 200° South 125 144 200 2,065 Descending KA90
Fri 09:13:04 AM 42.2803 -70.9556 162° South 165 190 7,500 2,355 Climbing Boston Center
Fri 09:14:04 AM 42.2239 -70.9403 169° South 165 190 7,500  Level Boston Center
Fri 09:16:00 AM 42.3100 -70.9810 341° North  Level FlightAware Approximate
Fri 09:23:00 AM 42.3500 -71.0000 340° North  Level FlightAware Approximate
Fri 09:24:00 AM 42.3630 -71.0064 340° North  Level Estimated
Fri 09:25:00 AM 42.3630 -71.0064 340° North  Level Estimated
Fri 09:26:00 AM 42.3630 -71.0064 340° North  Level Estimated

Login

Don't have an account? Register now (free) for customized features, flight alerts, and more!